Terminal Aerodrome Forecast
Issued by NWS

Home | Current Version | Previous Version | Text Only | Print | Product List | Glossary On
Versions: 1 2 3 4 5 6 7 8 9 10 11 12 13 14 15 16 17 18 19 20 21 22 23 24
000
FTUS45 KGJT 130531
TAFEGE
TAF
KEGE 130531Z 1306/1406 13003KT P6SM SKC
     FM131900 26005KT P6SM FEW130 SCT250
     FM140000 26004KT P6SM BKN110 BKN150
     FM140300 34004KT P6SM BKN060 BKN100
      AMD LTD TO CLD VIS AND WIND TIL 131400=

USA.gov is the U.S. government's official web portal to all federal, state and local government web resources and services.